sensor_id;sensor_type;location;lat;lon;timestamp;temperature;humidity
27647;DHT22;42229;51.230;6.240;2023-12-07T00:00:16;3.00;99.90
27647;DHT22;42229;51.230;6.240;2023-12-07T00:02:43;3.00;99.90
27647;DHT22;42229;51.230;6.240;2023-12-07T00:05:09;2.90;99.90
27647;DHT22;42229;51.230;6.240;2023-12-07T00:07:35;2.90;99.90
27647;DHT22;42229;51.230;6.240;2023-12-07T00:10:05;2.90;99.90
27647;DHT22;42229;51.230;6.240;2023-12-07T00:12:31;2.80;99.90
27647;DHT22;42229;51.230;6.240;2023-12-07T00:14:57;2.70;99.90
27647;DHT22;42229;51.230;6.240;2023-12-07T00:17:23;2.70;99.90
27647;DHT22;42229;51.230;6.240;2023-12-07T00:19:50;2.70;99.90
27647;DHT22;42229;51.230;6.240;2023-12-07T00:22:16;2.60;99.90
27647;DHT22;42229;51.230;6.240;2023-12-07T00:24:43;2.60;99.90
27647;DHT22;42229;51.230;6.240;2023-12-07T00:27:09;2.60;99.90
27647;DHT22;42229;51.230;6.240;2023-12-07T00:29:36;2.50;99.90
27647;DHT22;42229;51.230;6.240;2023-12-07T00:32:03;2.50;99.90
27647;DHT22;42229;51.230;6.240;2023-12-07T00:34:30;2.50;99.90
27647;DHT22;42229;51.230;6.240;2023-12-07T00:36:56;2.50;99.90
27647;DHT22;42229;51.230;6.240;2023-12-07T00:39:22;2.50;99.90
27647;DHT22;42229;51.230;6.240;2023-12-07T00:41:49;2.40;99.90
27647;DHT22;42229;51.230;6.240;2023-12-07T00:44:15;2.40;99.90
27647;DHT22;42229;51.230;6.240;2023-12-07T00:46:41;2.40;99.90
27647;DHT22;42229;51.230;6.240;2023-12-07T00:49:07;2.40;99.90
27647;DHT22;42229;51.230;6.240;2023-12-07T00:51:34;2.40;99.90
27647;DHT22;42229;51.230;6.240;2023-12-07T00:54:00;2.30;99.90
27647;DHT22;42229;51.230;6.240;2023-12-07T00:56:26;2.30;99.90
27647;DHT22;42229;51.230;6.240;2023-12-07T00:58:52;2.40;99.90
27647;DHT22;42229;51.230;6.240;2023-12-07T01:01:19;2.40;99.90
27647;DHT22;42229;51.230;6.240;2023-12-07T01:03:45;2.30;99.90
27647;DHT22;42229;51.230;6.240;2023-12-07T01:06:11;2.30;99.90
27647;DHT22;42229;51.230;6.240;2023-12-07T01:08:37;2.30;99.90
27647;DHT22;42229;51.230;6.240;2023-12-07T01:11:04;2.30;99.90
27647;DHT22;42229;51.230;6.240;2023-12-07T01:13:30;2.30;99.90
27647;DHT22;42229;51.230;6.240;2023-12-07T01:15:57;2.30;99.90
27647;DHT22;42229;51.230;6.240;2023-12-07T01:18:23;2.30;99.90
27647;DHT22;42229;51.230;6.240;2023-12-07T01:20:49;2.20;99.90
27647;DHT22;42229;51.230;6.240;2023-12-07T01:23:16;2.30;99.90
27647;DHT22;42229;51.230;6.240;2023-12-07T01:25:42;2.30;99.90
27647;DHT22;42229;51.230;6.240;2023-12-07T01:28:08;2.20;99.90
27647;DHT22;42229;51.230;6.240;2023-12-07T01:30:35;2.20;99.90
27647;DHT22;42229;51.230;6.240;2023-12-07T01:33:02;2.20;99.90
27647;DHT22;42229;51.230;6.240;2023-12-07T01:35:28;2.20;99.90
27647;DHT22;42229;51.230;6.240;2023-12-07T01:37:54;2.10;99.90
27647;DHT22;42229;51.230;6.240;2023-12-07T01:40:21;2.10;99.90
27647;DHT22;42229;51.230;6.240;2023-12-07T01:42:50;2.10;99.90
27647;DHT22;42229;51.230;6.240;2023-12-07T01:45:19;2.10;99.90
27647;DHT22;42229;51.230;6.240;2023-12-07T01:47:46;2.10;99.90
27647;DHT22;42229;51.230;6.240;2023-12-07T01:50:14;2.00;99.90
27647;DHT22;42229;51.230;6.240;2023-12-07T01:52:43;2.00;99.90
27647;DHT22;42229;51.230;6.240;2023-12-07T01:55:10;2.00;99.90
27647;DHT22;42229;51.230;6.240;2023-12-07T01:57:37;2.00;99.90
27647;DHT22;42229;51.230;6.240;2023-12-07T02:00:04;2.00;99.90
27647;DHT22;42229;51.230;6.240;2023-12-07T02:02:31;2.00;99.90
27647;DHT22;42229;51.230;6.240;2023-12-07T02:05:00;2.00;99.90
27647;DHT22;42229;51.230;6.240;2023-12-07T02:07:27;2.00;99.90
27647;DHT22;42229;51.230;6.240;2023-12-07T02:09:53;1.90;99.90
27647;DHT22;42229;51.230;6.240;2023-12-07T02:12:19;1.90;99.90
27647;DHT22;42229;51.230;6.240;2023-12-07T02:14:46;2.00;99.90
27647;DHT22;42229;51.230;6.240;2023-12-07T02:17:20;1.90;99.90
27647;DHT22;42229;51.230;6.240;2023-12-07T02:22:52;1.90;99.90
27647;DHT22;42229;51.230;6.240;2023-12-07T02:25:32;1.90;99.90
27647;DHT22;42229;51.230;6.240;2023-12-07T02:28:03;1.80;99.90
27647;DHT22;42229;51.230;6.240;2023-12-07T02:30:29;1.80;99.90
27647;DHT22;42229;51.230;6.240;2023-12-07T02:32:55;1.80;99.90
27647;DHT22;42229;51.230;6.240;2023-12-07T02:35:22;1.80;99.90
27647;DHT22;42229;51.230;6.240;2023-12-07T02:37:49;1.80;99.90
27647;DHT22;42229;51.230;6.240;2023-12-07T02:40:17;1.70;99.90
27647;DHT22;42229;51.230;6.240;2023-12-07T02:42:45;1.70;99.90
27647;DHT22;42229;51.230;6.240;2023-12-07T02:45:11;1.70;99.90
27647;DHT22;42229;51.230;6.240;2023-12-07T02:47:40;1.70;99.90
27647;DHT22;42229;51.230;6.240;2023-12-07T02:50:07;1.70;99.90
27647;DHT22;42229;51.230;6.240;2023-12-07T02:52:33;1.70;99.90
27647;DHT22;42229;51.230;6.240;2023-12-07T02:55:00;1.80;99.90
27647;DHT22;42229;51.230;6.240;2023-12-07T02:57:26;1.80;99.90
27647;DHT22;42229;51.230;6.240;2023-12-07T02:59:52;1.90;99.90
27647;DHT22;42229;51.230;6.240;2023-12-07T03:02:19;2.00;99.90
27647;DHT22;42229;51.230;6.240;2023-12-07T03:04:45;2.00;99.90
27647;DHT22;42229;51.230;6.240;2023-12-07T03:07:11;2.10;99.90
27647;DHT22;42229;51.230;6.240;2023-12-07T03:09:37;2.20;99.90
27647;DHT22;42229;51.230;6.240;2023-12-07T03:12:04;2.30;99.90
27647;DHT22;42229;51.230;6.240;2023-12-07T03:14:30;2.40;99.90
27647;DHT22;42229;51.230;6.240;2023-12-07T03:16:56;2.40;99.90
27647;DHT22;42229;51.230;6.240;2023-12-07T03:19:24;2.50;99.90
27647;DHT22;42229;51.230;6.240;2023-12-07T03:21:51;2.60;99.90
27647;DHT22;42229;51.230;6.240;2023-12-07T03:24:17;2.60;99.90
27647;DHT22;42229;51.230;6.240;2023-12-07T03:26:43;2.70;99.90
27647;DHT22;42229;51.230;6.240;2023-12-07T03:29:10;2.70;99.90
27647;DHT22;42229;51.230;6.240;2023-12-07T03:31:36;2.70;99.90
27647;DHT22;42229;51.230;6.240;2023-12-07T03:34:02;2.80;99.90
27647;DHT22;42229;51.230;6.240;2023-12-07T03:36:29;2.80;99.90
27647;DHT22;42229;51.230;6.240;2023-12-07T03:38:55;2.80;99.90
27647;DHT22;42229;51.230;6.240;2023-12-07T03:41:21;2.80;99.90
27647;DHT22;42229;51.230;6.240;2023-12-07T03:43:48;2.90;99.90
27647;DHT22;42229;51.230;6.240;2023-12-07T03:46:14;2.90;99.90
27647;DHT22;42229;51.230;6.240;2023-12-07T03:48:40;2.90;99.90
27647;DHT22;42229;51.230;6.240;2023-12-07T03:51:07;2.90;99.90
27647;DHT22;42229;51.230;6.240;2023-12-07T03:53:33;3.00;99.90
27647;DHT22;42229;51.230;6.240;2023-12-07T03:55:59;2.90;99.90
27647;DHT22;42229;51.230;6.240;2023-12-07T03:58:25;3.00;99.90
27647;DHT22;42229;51.230;6.240;2023-12-07T04:00:52;3.00;99.90
27647;DHT22;42229;51.230;6.240;2023-12-07T04:03:18;3.00;99.90
27647;DHT22;42229;51.230;6.240;2023-12-07T04:05:44;3.00;99.90
27647;DHT22;42229;51.230;6.240;2023-12-07T04:08:10;3.10;99.90
27647;DHT22;42229;51.230;6.240;2023-12-07T04:10:37;3.10;99.90
27647;DHT22;42229;51.230;6.240;2023-12-07T04:13:03;3.10;99.90
27647;DHT22;42229;51.230;6.240;2023-12-07T04:15:29;3.20;99.90
27647;DHT22;42229;51.230;6.240;2023-12-07T04:17:55;3.20;99.90
27647;DHT22;42229;51.230;6.240;2023-12-07T04:20:22;3.20;99.90
27647;DHT22;42229;51.230;6.240;2023-12-07T04:22:48;3.20;99.90
27647;DHT22;42229;51.230;6.240;2023-12-07T04:25:14;3.20;99.90
27647;DHT22;42229;51.230;6.240;2023-12-07T04:27:40;3.30;99.90
27647;DHT22;42229;51.230;6.240;2023-12-07T04:30:07;3.30;99.90
27647;DHT22;42229;51.230;6.240;2023-12-07T04:32:33;3.30;99.90
27647;DHT22;42229;51.230;6.240;2023-12-07T04:34:59;3.40;99.90
27647;DHT22;42229;51.230;6.240;2023-12-07T04:37:26;3.40;99.90
27647;DHT22;42229;51.230;6.240;2023-12-07T04:39:52;3.40;99.90
27647;DHT22;42229;51.230;6.240;2023-12-07T04:42:18;3.40;99.90
27647;DHT22;42229;51.230;6.240;2023-12-07T04:44:44;3.40;99.90
27647;DHT22;42229;51.230;6.240;2023-12-07T04:47:10;3.40;99.90
27647;DHT22;42229;51.230;6.240;2023-12-07T04:49:37;3.40;99.90
27647;DHT22;42229;51.230;6.240;2023-12-07T04:52:03;3.50;99.90
27647;DHT22;42229;51.230;6.240;2023-12-07T04:54:29;3.50;99.90
27647;DHT22;42229;51.230;6.240;2023-12-07T04:56:56;3.50;99.90
27647;DHT22;42229;51.230;6.240;2023-12-07T04:59:22;3.50;99.90
27647;DHT22;42229;51.230;6.240;2023-12-07T05:01:48;3.60;99.90
27647;DHT22;42229;51.230;6.240;2023-12-07T05:04:14;3.60;99.90
27647;DHT22;42229;51.230;6.240;2023-12-07T05:06:40;3.60;99.90
27647;DHT22;42229;51.230;6.240;2023-12-07T05:09:07;3.60;99.90
27647;DHT22;42229;51.230;6.240;2023-12-07T05:11:35;3.60;99.90
27647;DHT22;42229;51.230;6.240;2023-12-07T05:14:02;3.70;99.90
27647;DHT22;42229;51.230;6.240;2023-12-07T05:16:29;3.70;99.90
27647;DHT22;42229;51.230;6.240;2023-12-07T05:18:55;3.70;99.90
27647;DHT22;42229;51.230;6.240;2023-12-07T05:21:21;3.70;99.90
27647;DHT22;42229;51.230;6.240;2023-12-07T05:23:47;3.70;99.90
27647;DHT22;42229;51.230;6.240;2023-12-07T05:26:14;3.80;99.90
27647;DHT22;42229;51.230;6.240;2023-12-07T05:28:40;3.80;99.90
27647;DHT22;42229;51.230;6.240;2023-12-07T05:31:06;3.80;99.90
27647;DHT22;42229;51.230;6.240;2023-12-07T05:33:33;3.80;99.90
27647;DHT22;42229;51.230;6.240;2023-12-07T05:35:59;3.90;99.90
27647;DHT22;42229;51.230;6.240;2023-12-07T05:38:26;3.90;99.90
27647;DHT22;42229;51.230;6.240;2023-12-07T05:40:53;3.90;99.90
27647;DHT22;42229;51.230;6.240;2023-12-07T05:43:19;3.90;99.90
27647;DHT22;42229;51.230;6.240;2023-12-07T05:45:45;3.90;99.90
27647;DHT22;42229;51.230;6.240;2023-12-07T05:48:12;3.90;99.90
27647;DHT22;42229;51.230;6.240;2023-12-07T05:50:38;3.90;99.90
27647;DHT22;42229;51.230;6.240;2023-12-07T05:53:06;3.90;99.90
27647;DHT22;42229;51.230;6.240;2023-12-07T05:55:32;3.90;99.90
27647;DHT22;42229;51.230;6.240;2023-12-07T05:57:59;3.90;99.90
27647;DHT22;42229;51.230;6.240;2023-12-07T06:00:25;3.90;99.90
27647;DHT22;42229;51.230;6.240;2023-12-07T06:02:51;3.90;99.90
27647;DHT22;42229;51.230;6.240;2023-12-07T06:05:18;3.90;99.90
27647;DHT22;42229;51.230;6.240;2023-12-07T06:07:44;3.90;99.90
27647;DHT22;42229;51.230;6.240;2023-12-07T06:10:10;3.90;99.90
27647;DHT22;42229;51.230;6.240;2023-12-07T06:12:36;3.90;99.90
27647;DHT22;42229;51.230;6.240;2023-12-07T06:15:04;3.90;99.90
27647;DHT22;42229;51.230;6.240;2023-12-07T06:17:33;3.90;99.90
27647;DHT22;42229;51.230;6.240;2023-12-07T06:19:59;3.90;99.90
27647;DHT22;42229;51.230;6.240;2023-12-07T06:22:25;3.90;99.90
27647;DHT22;42229;51.230;6.240;2023-12-07T06:24:52;3.90;99.90
27647;DHT22;42229;51.230;6.240;2023-12-07T06:27:18;3.90;99.90
27647;DHT22;42229;51.230;6.240;2023-12-07T06:29:44;3.90;99.90
27647;DHT22;42229;51.230;6.240;2023-12-07T06:32:10;3.90;99.90
27647;DHT22;42229;51.230;6.240;2023-12-07T06:34:40;3.90;99.90
27647;DHT22;42229;51.230;6.240;2023-12-07T06:37:06;3.90;99.90
27647;DHT22;42229;51.230;6.240;2023-12-07T06:39:33;3.90;99.90
27647;DHT22;42229;51.230;6.240;2023-12-07T06:41:59;3.90;99.90
27647;DHT22;42229;51.230;6.240;2023-12-07T06:44:25;3.90;99.90
27647;DHT22;42229;51.230;6.240;2023-12-07T06:46:52;4.00;99.90
27647;DHT22;42229;51.230;6.240;2023-12-07T06:49:18;4.00;99.90
27647;DHT22;42229;51.230;6.240;2023-12-07T06:51:44;4.00;99.90
27647;DHT22;42229;51.230;6.240;2023-12-07T06:54:11;4.00;99.90
27647;DHT22;42229;51.230;6.240;2023-12-07T06:56:37;4.00;99.90
27647;DHT22;42229;51.230;6.240;2023-12-07T06:59:03;4.00;99.90
27647;DHT22;42229;51.230;6.240;2023-12-07T07:01:29;4.00;99.90
27647;DHT22;42229;51.230;6.240;2023-12-07T07:03:56;4.00;99.90
27647;DHT22;42229;51.230;6.240;2023-12-07T07:06:22;4.00;99.90
27647;DHT22;42229;51.230;6.240;2023-12-07T07:08:48;4.00;99.90
27647;DHT22;42229;51.230;6.240;2023-12-07T07:11:15;4.00;99.90
27647;DHT22;42229;51.230;6.240;2023-12-07T07:13:41;4.00;99.90
27647;DHT22;42229;51.230;6.240;2023-12-07T07:16:07;4.10;99.90
27647;DHT22;42229;51.230;6.240;2023-12-07T07:18:34;4.00;99.90
27647;DHT22;42229;51.230;6.240;2023-12-07T07:21:01;4.10;99.90
27647;DHT22;42229;51.230;6.240;2023-12-07T07:23:27;4.10;99.90
27647;DHT22;42229;51.230;6.240;2023-12-07T07:25:53;4.00;99.90
27647;DHT22;42229;51.230;6.240;2023-12-07T07:28:19;4.00;99.90
27647;DHT22;42229;51.230;6.240;2023-12-07T07:30:46;4.00;99.90
27647;DHT22;42229;51.230;6.240;2023-12-07T07:33:12;4.00;99.90
27647;DHT22;42229;51.230;6.240;2023-12-07T07:35:38;4.00;99.90
27647;DHT22;42229;51.230;6.240;2023-12-07T07:38:04;4.00;99.90
27647;DHT22;42229;51.230;6.240;2023-12-07T07:40:31;4.00;99.90
27647;DHT22;42229;51.230;6.240;2023-12-07T07:42:57;4.00;99.90
27647;DHT22;42229;51.230;6.240;2023-12-07T07:45:24;4.00;99.90
27647;DHT22;42229;51.230;6.240;2023-12-07T07:47:50;4.00;99.90
27647;DHT22;42229;51.230;6.240;2023-12-07T07:50:17;4.00;99.90
27647;DHT22;42229;51.230;6.240;2023-12-07T07:52:43;4.10;99.90
27647;DHT22;42229;51.230;6.240;2023-12-07T07:55:10;4.10;99.90
27647;DHT22;42229;51.230;6.240;2023-12-07T07:57:37;4.10;99.90
27647;DHT22;42229;51.230;6.240;2023-12-07T08:00:03;4.10;99.90
27647;DHT22;42229;51.230;6.240;2023-12-07T08:02:32;4.10;99.90
27647;DHT22;42229;51.230;6.240;2023-12-07T08:04:58;4.10;99.90
27647;DHT22;42229;51.230;6.240;2023-12-07T08:07:24;4.10;99.90
27647;DHT22;42229;51.230;6.240;2023-12-07T08:09:50;4.10;99.90
27647;DHT22;42229;51.230;6.240;2023-12-07T08:12:17;4.10;99.90
27647;DHT22;42229;51.230;6.240;2023-12-07T08:14:43;4.10;99.90
27647;DHT22;42229;51.230;6.240;2023-12-07T08:17:11;4.10;99.90
27647;DHT22;42229;51.230;6.240;2023-12-07T08:19:37;4.10;99.90
27647;DHT22;42229;51.230;6.240;2023-12-07T08:22:04;4.10;99.90
27647;DHT22;42229;51.230;6.240;2023-12-07T08:24:30;4.10;99.90
27647;DHT22;42229;51.230;6.240;2023-12-07T08:26:56;4.10;99.90
27647;DHT22;42229;51.230;6.240;2023-12-07T08:29:22;4.10;99.90
27647;DHT22;42229;51.230;6.240;2023-12-07T08:31:49;4.10;99.90
27647;DHT22;42229;51.230;6.240;2023-12-07T08:34:15;4.10;99.90
27647;DHT22;42229;51.230;6.240;2023-12-07T08:36:41;4.10;99.90
27647;DHT22;42229;51.230;6.240;2023-12-07T08:39:07;4.10;99.90
27647;DHT22;42229;51.230;6.240;2023-12-07T08:41:35;4.10;99.90
27647;DHT22;42229;51.230;6.240;2023-12-07T08:44:05;4.10;99.90
27647;DHT22;42229;51.230;6.240;2023-12-07T08:46:31;4.10;99.90
27647;DHT22;42229;51.230;6.240;2023-12-07T08:48:57;4.10;99.90
27647;DHT22;42229;51.230;6.240;2023-12-07T08:51:23;4.20;99.90
27647;DHT22;42229;51.230;6.240;2023-12-07T08:53:49;4.10;99.90
27647;DHT22;42229;51.230;6.240;2023-12-07T08:56:18;4.10;99.90
27647;DHT22;42229;51.230;6.240;2023-12-07T08:58:44;4.10;99.90
27647;DHT22;42229;51.230;6.240;2023-12-07T09:01:10;4.00;99.90
27647;DHT22;42229;51.230;6.240;2023-12-07T09:03:37;4.00;99.90
27647;DHT22;42229;51.230;6.240;2023-12-07T09:06:03;4.00;99.90
27647;DHT22;42229;51.230;6.240;2023-12-07T09:08:31;4.00;99.90
27647;DHT22;42229;51.230;6.240;2023-12-07T09:10:57;4.00;99.90
27647;DHT22;42229;51.230;6.240;2023-12-07T09:13:23;3.90;99.90
27647;DHT22;42229;51.230;6.240;2023-12-07T09:15:49;3.90;99.90
27647;DHT22;42229;51.230;6.240;2023-12-07T09:18:16;3.90;99.90
27647;DHT22;42229;51.230;6.240;2023-12-07T09:20:42;3.90;99.90
27647;DHT22;42229;51.230;6.240;2023-12-07T09:23:15;4.00;99.90
27647;DHT22;42229;51.230;6.240;2023-12-07T09:25:42;3.90;99.90
27647;DHT22;42229;51.230;6.240;2023-12-07T09:28:09;4.00;99.90
27647;DHT22;42229;51.230;6.240;2023-12-07T09:30:35;4.00;99.90
27647;DHT22;42229;51.230;6.240;2023-12-07T09:33:01;4.00;99.90
27647;DHT22;42229;51.230;6.240;2023-12-07T09:35:30;4.00;99.90
27647;DHT22;42229;51.230;6.240;2023-12-07T09:37:57;4.10;99.90
27647;DHT22;42229;51.230;6.240;2023-12-07T09:40:23;4.10;99.90
27647;DHT22;42229;51.230;6.240;2023-12-07T09:42:50;4.10;99.90
27647;DHT22;42229;51.230;6.240;2023-12-07T09:45:17;4.10;99.90
27647;DHT22;42229;51.230;6.240;2023-12-07T09:47:52;4.10;99.90
27647;DHT22;42229;51.230;6.240;2023-12-07T09:50:19;4.20;99.90
27647;DHT22;42229;51.230;6.240;2023-12-07T09:52:50;4.20;99.90
27647;DHT22;42229;51.230;6.240;2023-12-07T09:55:18;4.20;99.90
27647;DHT22;42229;51.230;6.240;2023-12-07T09:57:45;4.30;99.90
27647;DHT22;42229;51.230;6.240;2023-12-07T10:00:12;4.30;99.90
27647;DHT22;42229;51.230;6.240;2023-12-07T10:02:41;4.30;99.90
27647;DHT22;42229;51.230;6.240;2023-12-07T10:05:09;4.30;99.90
27647;DHT22;42229;51.230;6.240;2023-12-07T10:07:38;4.40;99.90
27647;DHT22;42229;51.230;6.240;2023-12-07T10:10:13;4.40;99.90
27647;DHT22;42229;51.230;6.240;2023-12-07T10:15:23;4.50;99.90
27647;DHT22;42229;51.230;6.240;2023-12-07T10:17:54;4.50;99.90
27647;DHT22;42229;51.230;6.240;2023-12-07T10:20:23;4.60;99.90
27647;DHT22;42229;51.230;6.240;2023-12-07T10:23:03;4.70;99.90
27647;DHT22;42229;51.230;6.240;2023-12-07T10:25:31;4.80;99.90
27647;DHT22;42229;51.230;6.240;2023-12-07T10:27:57;4.90;99.90
27647;DHT22;42229;51.230;6.240;2023-12-07T10:30:24;4.90;99.90
27647;DHT22;42229;51.230;6.240;2023-12-07T10:32:51;5.00;99.90
27647;DHT22;42229;51.230;6.240;2023-12-07T10:35:18;5.00;99.90
27647;DHT22;42229;51.230;6.240;2023-12-07T10:37:46;5.10;99.90
27647;DHT22;42229;51.230;6.240;2023-12-07T10:40:12;5.10;99.90
27647;DHT22;42229;51.230;6.240;2023-12-07T10:42:39;5.20;99.90
27647;DHT22;42229;51.230;6.240;2023-12-07T10:45:07;5.30;99.90
27647;DHT22;42229;51.230;6.240;2023-12-07T10:47:35;5.40;99.90
27647;DHT22;42229;51.230;6.240;2023-12-07T10:50:03;5.40;99.90
27647;DHT22;42229;51.230;6.240;2023-12-07T10:52:37;5.50;99.90
27647;DHT22;42229;51.230;6.240;2023-12-07T10:55:07;5.60;99.90
27647;DHT22;42229;51.230;6.240;2023-12-07T10:57:34;5.60;99.90
27647;DHT22;42229;51.230;6.240;2023-12-07T11:00:02;5.60;99.90
27647;DHT22;42229;51.230;6.240;2023-12-07T11:02:29;5.70;99.90
27647;DHT22;42229;51.230;6.240;2023-12-07T11:04:55;5.80;99.90
27647;DHT22;42229;51.230;6.240;2023-12-07T11:07:23;5.90;99.90
27647;DHT22;42229;51.230;6.240;2023-12-07T11:09:53;6.00;99.90
27647;DHT22;42229;51.230;6.240;2023-12-07T11:12:28;6.10;99.90
27647;DHT22;42229;51.230;6.240;2023-12-07T11:15:00;6.20;99.90
27647;DHT22;42229;51.230;6.240;2023-12-07T11:17:28;6.40;99.90
27647;DHT22;42229;51.230;6.240;2023-12-07T11:19:54;6.50;99.90
27647;DHT22;42229;51.230;6.240;2023-12-07T11:22:20;6.70;99.90
27647;DHT22;42229;51.230;6.240;2023-12-07T11:24:56;6.90;99.90
27647;DHT22;42229;51.230;6.240;2023-12-07T11:27:31;7.10;99.90
27647;DHT22;42229;51.230;6.240;2023-12-07T11:29:58;7.30;99.90
27647;DHT22;42229;51.230;6.240;2023-12-07T11:32:27;7.50;99.90
27647;DHT22;42229;51.230;6.240;2023-12-07T11:34:53;7.70;99.90
27647;DHT22;42229;51.230;6.240;2023-12-07T11:37:19;7.90;99.90
27647;DHT22;42229;51.230;6.240;2023-12-07T11:39:46;8.10;99.90
27647;DHT22;42229;51.230;6.240;2023-12-07T11:42:13;8.30;99.90
27647;DHT22;42229;51.230;6.240;2023-12-07T11:44:41;8.50;99.90
27647;DHT22;42229;51.230;6.240;2023-12-07T11:47:09;8.60;99.90
27647;DHT22;42229;51.230;6.240;2023-12-07T11:49:35;8.80;99.90
27647;DHT22;42229;51.230;6.240;2023-12-07T11:52:12;8.80;99.90
27647;DHT22;42229;51.230;6.240;2023-12-07T11:54:48;9.00;99.90
27647;DHT22;42229;51.230;6.240;2023-12-07T11:57:15;9.10;99.90
27647;DHT22;42229;51.230;6.240;2023-12-07T11:59:46;9.20;99.90
27647;DHT22;42229;51.230;6.240;2023-12-07T12:02:15;9.20;99.90
27647;DHT22;42229;51.230;6.240;2023-12-07T12:04:42;9.40;99.90
27647;DHT22;42229;51.230;6.240;2023-12-07T12:07:08;9.40;99.90
27647;DHT22;42229;51.230;6.240;2023-12-07T12:09:35;9.50;99.90
27647;DHT22;42229;51.230;6.240;2023-12-07T12:12:01;9.50;99.90
27647;DHT22;42229;51.230;6.240;2023-12-07T12:14:27;9.70;99.90
27647;DHT22;42229;51.230;6.240;2023-12-07T12:16:54;9.80;99.90
27647;DHT22;42229;51.230;6.240;2023-12-07T12:19:22;9.90;99.90
27647;DHT22;42229;51.230;6.240;2023-12-07T12:21:48;9.90;99.90
27647;DHT22;42229;51.230;6.240;2023-12-07T12:24:14;10.00;99.90
27647;DHT22;42229;51.230;6.240;2023-12-07T12:26:41;10.20;99.90
27647;DHT22;42229;51.230;6.240;2023-12-07T12:29:08;10.20;99.90
27647;DHT22;42229;51.230;6.240;2023-12-07T12:31:37;10.30;99.90
27647;DHT22;42229;51.230;6.240;2023-12-07T12:34:07;10.40;99.90
27647;DHT22;42229;51.230;6.240;2023-12-07T12:36:38;10.50;99.90
27647;DHT22;42229;51.230;6.240;2023-12-07T12:39:04;10.70;99.90
27647;DHT22;42229;51.230;6.240;2023-12-07T12:41:34;10.90;99.90
27647;DHT22;42229;51.230;6.240;2023-12-07T12:44:00;11.10;99.90
27647;DHT22;42229;51.230;6.240;2023-12-07T12:46:27;11.20;99.90
27647;DHT22;42229;51.230;6.240;2023-12-07T12:48:57;11.40;99.90
27647;DHT22;42229;51.230;6.240;2023-12-07T12:51:24;11.50;99.90
27647;DHT22;42229;51.230;6.240;2023-12-07T12:53:53;11.60;99.90
27647;DHT22;42229;51.230;6.240;2023-12-07T12:56:21;11.70;99.90
27647;DHT22;42229;51.230;6.240;2023-12-07T12:58:51;11.70;99.90
27647;DHT22;42229;51.230;6.240;2023-12-07T13:01:18;11.70;99.90
27647;DHT22;42229;51.230;6.240;2023-12-07T13:03:44;11.70;99.90
27647;DHT22;42229;51.230;6.240;2023-12-07T13:06:14;11.60;99.90
27647;DHT22;42229;51.230;6.240;2023-12-07T13:08:41;11.70;99.90
27647;DHT22;42229;51.230;6.240;2023-12-07T13:11:09;11.80;99.90
27647;DHT22;42229;51.230;6.240;2023-12-07T13:13:35;11.90;99.90
27647;DHT22;42229;51.230;6.240;2023-12-07T13:16:02;12.00;99.90
27647;DHT22;42229;51.230;6.240;2023-12-07T13:18:28;12.00;99.90
27647;DHT22;42229;51.230;6.240;2023-12-07T13:20:54;12.10;99.90
27647;DHT22;42229;51.230;6.240;2023-12-07T13:23:20;12.20;99.90
27647;DHT22;42229;51.230;6.240;2023-12-07T13:25:47;12.20;99.90
27647;DHT22;42229;51.230;6.240;2023-12-07T13:28:13;12.20;99.90
27647;DHT22;42229;51.230;6.240;2023-12-07T13:30:40;12.30;99.90
27647;DHT22;42229;51.230;6.240;2023-12-07T13:33:06;12.30;99.90
27647;DHT22;42229;51.230;6.240;2023-12-07T13:35:35;12.30;99.90
27647;DHT22;42229;51.230;6.240;2023-12-07T13:38:01;12.20;99.90
27647;DHT22;42229;51.230;6.240;2023-12-07T13:40:27;12.00;99.90
27647;DHT22;42229;51.230;6.240;2023-12-07T13:42:54;11.80;99.90
27647;DHT22;42229;51.230;6.240;2023-12-07T13:45:20;11.60;99.90
27647;DHT22;42229;51.230;6.240;2023-12-07T13:47:46;11.40;99.90
27647;DHT22;42229;51.230;6.240;2023-12-07T13:50:13;11.20;99.90
27647;DHT22;42229;51.230;6.240;2023-12-07T13:52:40;11.00;99.90
27647;DHT22;42229;51.230;6.240;2023-12-07T13:55:06;10.80;99.90
27647;DHT22;42229;51.230;6.240;2023-12-07T13:57:33;10.60;99.90
27647;DHT22;42229;51.230;6.240;2023-12-07T13:59:59;10.40;99.90
27647;DHT22;42229;51.230;6.240;2023-12-07T14:02:25;10.20;99.90
27647;DHT22;42229;51.230;6.240;2023-12-07T14:04:52;10.00;99.90
27647;DHT22;42229;51.230;6.240;2023-12-07T14:07:18;9.70;99.90
27647;DHT22;42229;51.230;6.240;2023-12-07T14:09:47;9.50;99.90
27647;DHT22;42229;51.230;6.240;2023-12-07T14:12:15;9.20;99.90
27647;DHT22;42229;51.230;6.240;2023-12-07T14:14:41;8.90;99.90
27647;DHT22;42229;51.230;6.240;2023-12-07T14:17:09;8.70;99.90
27647;DHT22;42229;51.230;6.240;2023-12-07T14:19:36;8.50;99.90
27647;DHT22;42229;51.230;6.240;2023-12-07T14:22:03;8.30;99.90
27647;DHT22;42229;51.230;6.240;2023-12-07T14:24:30;8.10;99.90
27647;DHT22;42229;51.230;6.240;2023-12-07T14:26:56;8.00;99.90
27647;DHT22;42229;51.230;6.240;2023-12-07T14:29:23;7.80;99.90
27647;DHT22;42229;51.230;6.240;2023-12-07T14:31:50;7.60;99.90
27647;DHT22;42229;51.230;6.240;2023-12-07T14:34:17;7.50;99.90
27647;DHT22;42229;51.230;6.240;2023-12-07T14:36:44;7.40;99.90
27647;DHT22;42229;51.230;6.240;2023-12-07T14:39:11;7.30;99.90
27647;DHT22;42229;51.230;6.240;2023-12-07T14:41:44;7.10;99.90
27647;DHT22;42229;51.230;6.240;2023-12-07T14:44:13;7.00;99.90
27647;DHT22;42229;51.230;6.240;2023-12-07T14:46:40;6.90;99.90
27647;DHT22;42229;51.230;6.240;2023-12-07T14:49:16;6.80;99.90
27647;DHT22;42229;51.230;6.240;2023-12-07T14:51:45;6.70;99.90
27647;DHT22;42229;51.230;6.240;2023-12-07T14:54:11;6.60;99.90
27647;DHT22;42229;51.230;6.240;2023-12-07T14:56:38;6.60;99.90
27647;DHT22;42229;51.230;6.240;2023-12-07T14:59:05;6.50;99.90
27647;DHT22;42229;51.230;6.240;2023-12-07T15:01:33;6.40;99.90
27647;DHT22;42229;51.230;6.240;2023-12-07T15:03:59;6.30;99.90
27647;DHT22;42229;51.230;6.240;2023-12-07T15:06:26;6.20;99.90
27647;DHT22;42229;51.230;6.240;2023-12-07T15:08:52;6.10;99.90
27647;DHT22;42229;51.230;6.240;2023-12-07T15:11:18;6.10;99.90
27647;DHT22;42229;51.230;6.240;2023-12-07T15:13:45;6.00;99.90
27647;DHT22;42229;51.230;6.240;2023-12-07T15:16:11;5.90;99.90
27647;DHT22;42229;51.230;6.240;2023-12-07T15:18:38;5.80;99.90
27647;DHT22;42229;51.230;6.240;2023-12-07T15:21:11;5.80;99.90
27647;DHT22;42229;51.230;6.240;2023-12-07T15:23:41;5.70;99.90
27647;DHT22;42229;51.230;6.240;2023-12-07T15:26:08;5.60;99.90
27647;DHT22;42229;51.230;6.240;2023-12-07T15:28:35;5.60;99.90
27647;DHT22;42229;51.230;6.240;2023-12-07T15:31:03;5.50;99.90
27647;DHT22;42229;51.230;6.240;2023-12-07T15:33:30;5.50;99.90
27647;DHT22;42229;51.230;6.240;2023-12-07T15:35:57;5.40;99.90
27647;DHT22;42229;51.230;6.240;2023-12-07T15:38:23;5.40;99.90
27647;DHT22;42229;51.230;6.240;2023-12-07T15:40:50;5.30;99.90
27647;DHT22;42229;51.230;6.240;2023-12-07T15:43:17;5.30;99.90
27647;DHT22;42229;51.230;6.240;2023-12-07T15:45:44;5.30;99.90
27647;DHT22;42229;51.230;6.240;2023-12-07T15:48:10;5.20;99.90